Aérodrome :
LOGIN :

S'inscrire | Disclaimer

   EN    FR    IT 

 










Légende :    VFR   VFR Marginal   IFR   IFR Intensif   IFR Très Intensif
Visi : 
Plafond : 
>= 8 km
>= 3000ft
5 à 8 km
1000 à 3000 ft
1500m à 5 km
500 à 1000 ft
800 à 1500m
200 à 500 ft
< 800m
< 200 ft
Symboles :   Orages  Brouillard  Fortes neiges  Fortes précipitations  Vent > 20 kt
SIGMETs :   Divers  Orages  Givrage  Turbulence  Onde Orograph.  Cendres Volcan.







- Altitude de l'aérodrome : 1325 ft
- Code IATA : EBU
- Voir les cartes d'approche


LFMH - St-Etienne Boutheon

DERNIER METAR :
  • 280730Z AUTO 19013KT 9999 FEW047 OVC078 09/02 Q1002 TEMPO 20015G25KT SHRA BKN030TCU

METARs EXPIRÉS :
  • 280700Z AUTO 19010KT 9999 BKN048 BKN074 OVC092 09/01 Q1002 TEMPO 20015G25KT SHRA BKN030TCU
  • 280630Z AUTO 18012KT 9999 OVC045 09/01 Q1002 TEMPO 20015G25KT SHRA BKN030TCU
  • 280600Z AUTO 18012KT 150V210 9999 OVC045 09/01 Q1003 TEMPO 20015G25KT SHRA BKN030TCU
  • 280530Z AUTO 18009KT 150V210 9999 BKN046 OVC060 09/02 Q1003 TEMPO 20015G25KT SHRA BKN030TCU
  • 280500Z AUTO 17009KT 9999 FEW056 OVC068 09/02 Q1003 TEMPO 20015G25KT SHRA BKN030TCU
  • 280430Z AUTO 19007KT 160V220 9999 FEW036 BKN074 OVC098 09/02 Q1003 TEMPO 20015G25KT SHRA BKN030TCU

TAF TAF LFMH
Valide du 28 à 03h jusqu'au 01 à 03h UTC


280200Z 2803/0103 18010KT 9999 BKN050
PROB40
TEMPO 2803/2820 20015G25KT SHRA BKN030TCU
PROB30
TEMPO 2810/2815 24020G40KT TSRA BKN020CB
BECMG 2818/2820 27010KT
ATIS : +33 4 77 36 17 51
Pas de NOTAMs connus pour ce terrain.



MET'MAP, la Météo Aéronautique d'un coup d'oeil ! - Copyright ORBIFLY Décembre 2007 - Disclaimer

ORBIFLY MET'MAP TEAM :

Programmation & Développement : Alexandra Zaïnal
Conception & Développement : Baudouin d'Aumeries
Co-Programmation & Développement : Marc-Olivier Méhu
Soutien technique & logistique : Manuel Goepfert

Contact : metmap@orbifly.com




SOURCES & CREDITS :

   NOAA